Time;durP1;ratioP1;P1;durP2;ratioP2;P2;SDS_P1;SDS_P2;PMS_P1;PMS_P2;Temp;Humidity;BMP_temperature;BMP_pressure;BME280_temperature;BME280_humidity;BME280_pressure;Samples;Min_cycle;Max_cycle;Signal;HPM_P1;HPM_P2
2021/05/12 00:00:24;;;;;;;9.75;7.68;;;;;;;16.85;100.00;99707.78;3564130;40;20041;-50
2021/05/12 00:02:52;;;;;;;8.75;7.85;;;;;;;16.88;100.00;99713.78;3564784;40;20116;-50
2021/05/12 00:05:24;;;;;;;8.48;7.68;;;;;;;16.91;99.78;99724.03;3565075;40;20049;-50
2021/05/12 00:07:52;;;;;;;8.63;7.72;;;;;;;16.77;100.00;99718.22;3564488;40;20046;-48
2021/05/12 00:10:23;;;;;;;8.88;7.85;;;;;;;16.92;100.00;99722.34;3564986;40;20427;-54
2021/05/12 00:12:51;;;;;;;9.57;8.65;;;;;;;16.64;100.00;99730.47;3564633;40;20265;-50
2021/05/12 00:15:24;;;;;;;10.20;7.95;;;;;;;16.46;100.00;99730.75;3564949;40;20050;-52
2021/05/12 00:17:53;;;;;;;8.25;7.40;;;;;;;16.33;100.00;99732.63;3564567;40;20416;-47
2021/05/12 00:20:28;;;;;;;7.38;6.68;;;;;;;16.45;100.00;99737.59;3564754;40;20900;-56
2021/05/12 00:23:04;;;;;;;7.03;6.32;;;;;;;16.67;99.51;99745.06;3564513;40;20037;-52
2021/05/12 00:25:32;;;;;;;7.13;6.40;;;;;;;16.32;100.00;99746.44;3564965;40;20057;-50
2021/05/12 00:27:59;;;;;;;7.55;6.80;;;;;;;16.43;100.00;99739.38;3564731;40;20415;-49
2021/05/12 00:30:26;;;;;;;6.43;5.82;;;;;;;16.32;100.00;99736.09;3564752;40;20060;-53
2021/05/12 00:32:54;;;;;;;6.95;5.88;;;;;;;16.05;100.00;99737.28;3564037;40;20041;-55
2021/05/12 00:35:22;;;;;;;6.85;6.25;;;;;;;16.08;100.00;99741.53;3562784;40;20050;-50
2021/05/12 00:37:49;;;;;;;7.72;5.95;;;;;;;16.34;99.30;99746.41;3564396;40;20090;-48
2021/05/12 00:40:18;;;;;;;6.03;5.50;;;;;;;16.37;99.32;99749.81;3565008;40;20144;-55
2021/05/12 00:42:46;;;;;;;6.32;5.72;;;;;;;16.24;99.79;99756.84;3564424;40;20459;-53
2021/05/12 00:45:16;;;;;;;7.15;6.45;;;;;;;15.90;100.00;99758.09;3565982;40;20056;-51
2021/05/12 00:47:48;;;;;;;9.23;7.95;;;;;;;15.73;100.00;99761.72;3563951;40;20080;-51
2021/05/12 00:50:19;;;;;;;10.75;8.80;;;;;;;15.78;100.00;99764.25;3565155;40;20081;-48
2021/05/12 00:52:46;;;;;;;10.95;9.85;;;;;;;15.61;100.00;99768.69;3564425;40;20084;-50
2021/05/12 00:55:13;;;;;;;11.32;9.30;;;;;;;15.91;99.54;99781.34;3564819;40;20085;-51
2021/05/12 00:57:41;;;;;;;13.90;10.48;;;;;;;15.79;100.00;99791.78;3564062;40;20343;-50
2021/05/12 01:00:11;;;;;;;14.27;11.18;;;;;;;15.57;100.00;99795.41;3564655;40;20061;-54
2021/05/12 01:02:38;;;;;;;15.48;11.45;;;;;;;15.77;98.56;99796.13;3564645;40;20061;-53
2021/05/12 01:05:13;;;;;;;15.68;12.73;;;;;;;15.64;100.00;99789.38;3564610;40;20084;-54
2021/05/12 01:07:40;;;;;;;14.40;12.70;;;;;;;15.63;100.00;99795.38;3563587;40;20092;-48
2021/05/12 01:10:07;;;;;;;14.00;11.05;;;;;;;15.65;98.54;99815.16;3563754;40;20060;-52
2021/05/12 01:12:34;;;;;;;13.60;12.20;;;;;;;15.54;98.31;99812.63;3563674;40;20105;-58
2021/05/12 01:15:02;;;;;;;14.40;11.65;;;;;;;15.50;98.44;99807.50;3564580;40;20061;-55
2021/05/12 01:17:29;;;;;;;13.95;11.88;;;;;;;15.43;99.20;99816.16;3562642;40;20056;-55
2021/05/12 01:19:56;;;;;;;16.23;12.35;;;;;;;15.15;100.00;99818.09;3563893;40;20061;-50
2021/05/12 01:22:23;;;;;;;13.32;11.00;;;;;;;15.47;98.79;99813.53;3565256;40;20081;-52
2021/05/12 01:24:50;;;;;;;14.05;10.52;;;;;;;15.60;96.75;99824.63;3562836;40;20105;-56
2021/05/12 01:27:17;;;;;;;13.70;11.35;;;;;;;15.41;97.39;99810.19;3563714;40;20053;-54
2021/05/12 01:29:44;;;;;;;12.10;10.80;;;;;;;15.32;98.54;99797.34;3563658;40;20053;-50
2021/05/12 01:32:12;;;;;;;12.07;10.82;;;;;;;15.42;98.22;99817.88;3564434;40;20418;-55
2021/05/12 01:34:39;;;;;;;13.35;10.55;;;;;;;15.51;96.78;99825.56;3563903;40;20089;-49
2021/05/12 01:37:05;;;;;;;11.30;10.05;;;;;;;15.39;98.22;99823.09;3564092;40;20045;-52
2021/05/12 01:39:33;;;;;;;13.13;10.57;;;;;;;15.43;98.33;99819.59;3563641;40;20451;-53
2021/05/12 01:42:00;;;;;;;11.57;10.20;;;;;;;15.23;98.24;99824.91;3565028;40;20081;-51
2021/05/12 01:44:28;;;;;;;14.07;10.75;;;;;;;15.08;97.56;99812.13;3564643;40;20049;-55
2021/05/12 01:46:55;;;;;;;14.02;10.65;;;;;;;15.03;99.18;99809.59;3564041;40;20049;-51
2021/05/12 01:49:28;;;;;;;14.82;10.38;;;;;;;15.14;99.40;99808.66;3560948;40;20048;-53
2021/05/12 01:51:59;;;;;;;11.95;10.75;;;;;;;15.25;99.45;99802.56;3564125;40;20045;-56
2021/05/12 01:54:26;;;;;;;16.75;11.10;;;;;;;15.33;97.94;99805.06;3564377;40;20045;-53
2021/05/12 01:56:53;;;;;;;14.15;11.48;;;;;;;15.10;99.10;99807.81;3565441;40;20061;-55
2021/05/12 01:59:21;;;;;;;11.98;10.57;;;;;;;14.90;100.00;99810.53;3563090;40;20057;-57
2021/05/12 02:01:48;;;;;;;14.98;12.32;;;;;;;15.20;98.09;99821.50;3564158;40;20134;-54
2021/05/12 02:04:15;;;;;;;13.20;11.80;;;;;;;15.26;98.01;99811.16;3564524;40;20085;-53
2021/05/12 02:06:42;;;;;;;11.27;9.98;;;;;;;15.31;96.39;99813.69;3563960;40;20057;-57
2021/05/12 02:09:09;;;;;;;11.93;10.63;;;;;;;15.08;98.14;99819.88;3564635;40;20062;-51
2021/05/12 02:11:39;;;;;;;13.48;10.68;;;;;;;15.13;98.17;99823.28;3564284;40;20053;-55
2021/05/12 02:14:07;;;;;;;11.93;9.93;;;;;;;15.14;98.17;99819.81;3564625;40;20049;-52
2021/05/12 02:16:34;;;;;;;12.73;9.73;;;;;;;15.26;97.07;99812.00;3563731;40;20054;-54
2021/05/12 02:19:01;;;;;;;12.23;10.48;;;;;;;15.14;96.62;99814.66;3560908;40;20124;-50
2021/05/12 02:21:28;;;;;;;10.75;9.38;;;;;;;15.33;95.34;99817.97;3564221;40;20049;-51
2021/05/12 02:23:56;;;;;;;11.98;9.68;;;;;;;15.23;96.24;99824.06;3565147;40;20335;-54
2021/05/12 02:26:23;;;;;;;11.27;9.57;;;;;;;15.29;95.19;99819.69;3564545;40;20049;-48
2021/05/12 02:28:50;;;;;;;11.55;9.18;;;;;;;15.19;94.84;99824.94;3563747;40;20058;-54
2021/05/12 02:31:17;;;;;;;11.25;9.57;;;;;;;15.25;94.64;99825.78;3564410;40;20411;-53
2021/05/12 02:33:44;;;;;;;13.65;9.32;;;;;;;15.05;95.71;99827.63;3564306;40;20085;-55
2021/05/12 02:36:11;;;;;;;12.02;9.60;;;;;;;14.94;97.42;99826.84;3564553;40;20053;-48
2021/05/12 02:38:38;;;;;;;12.75;10.35;;;;;;;14.91;97.57;99827.72;3565022;40;20077;-54
2021/05/12 02:41:07;;;;;;;12.68;10.20;;;;;;;15.01;96.77;99821.63;3565173;40;20354;-52
2021/05/12 02:43:34;;;;;;;12.35;9.35;;;;;;;14.95;96.78;99819.09;3564107;40;20070;-51
2021/05/12 02:46:01;;;;;;;11.48;9.57;;;;;;;14.83;98.44;99816.56;3564237;40;20046;-56
2021/05/12 02:48:28;;;;;;;11.57;8.48;;;;;;;14.81;96.58;99818.31;3564159;40;20205;-48
2021/05/12 02:50:55;;;;;;;10.52;8.48;;;;;;;14.50;96.80;99823.63;3564731;40;20271;-54
2021/05/12 02:53:23;;;;;;;11.23;8.55;;;;;;;14.36;97.08;99822.78;3563011;40;20080;-54
2021/05/12 02:55:50;;;;;;;11.02;8.15;;;;;;;14.59;95.88;99832.16;3563531;40;20083;-53
2021/05/12 02:58:17;;;;;;;11.30;7.70;;;;;;;14.40;96.12;99837.38;3564673;40;20113;-53
2021/05/12 03:00:44;;;;;;;9.13;6.30;;;;;;;14.34;95.76;99834.81;3564708;40;20160;-50
2021/05/12 03:03:12;;;;;;;8.63;6.32;;;;;;;14.60;93.47;99828.72;3563928;40;20061;-51
2021/05/12 03:05:39;;;;;;;7.20;6.45;;;;;;;14.32;94.90;99833.09;3563580;40;20081;-54
2021/05/12 03:08:07;;;;;;;9.02;6.32;;;;;;;14.54;93.17;99826.19;3564126;40;20056;-48
2021/05/12 03:10:35;;;;;;;10.63;6.32;;;;;;;14.56;92.78;99825.34;3563264;40;20115;-48
2021/05/12 03:13:04;;;;;;;8.77;6.07;;;;;;;14.57;93.10;99819.31;3560962;40;20117;-52
2021/05/12 03:15:32;;;;;;;8.05;5.88;;;;;;;14.48;94.04;99817.63;3563605;40;20072;-59
2021/05/12 03:18:00;;;;;;;8.18;6.28;;;;;;;14.45;94.00;99820.16;3560220;40;20094;-53
2021/05/12 03:20:28;;;;;;;11.10;6.35;;;;;;;14.52;93.60;99826.22;3563293;40;20108;-55
2021/05/12 03:22:57;;;;;;;9.27;5.75;;;;;;;14.53;92.34;99825.34;3563458;40;20371;-50
2021/05/12 03:25:25;;;;;;;7.78;5.90;;;;;;;14.41;93.77;99838.22;3564090;40;20049;-54
2021/05/12 03:27:52;;;;;;;9.00;6.18;;;;;;;14.46;93.22;99845.06;3563698;40;20058;-54
2021/05/12 03:30:26;;;;;;;7.43;5.75;;;;;;;14.39;94.26;99838.22;3566775;40;20084;-52
2021/05/12 03:32:54;;;;;;;8.65;5.63;;;;;;;14.16;95.25;99835.72;3562529;40;20042;-55
2021/05/12 03:35:21;;;;;;;6.85;6.22;;;;;;;14.27;95.49;99830.53;3561069;40;20065;-54
2021/05/12 03:37:48;;;;;;;8.02;6.43;;;;;;;14.13;95.54;99828.00;3566639;40;20088;-50
2021/05/12 03:40:16;;;;;;;8.77;6.43;;;;;;;14.08;96.15;99819.44;3567883;40;20049;-52
2021/05/12 03:42:44;;;;;;;9.20;6.47;;;;;;;14.13;96.29;99822.00;3565027;40;20320;-56
2021/05/12 03:45:13;;;;;;;7.40;6.05;;;;;;;14.13;95.80;99828.00;3564905;40;20399;-51
2021/05/12 03:47:47;;;;;;;7.30;5.33;;;;;;;14.35;94.33;99831.38;3564504;40;20065;-55
2021/05/12 03:50:15;;;;;;;6.57;5.80;;;;;;;14.22;95.08;99832.28;3563806;40;20049;-56
2021/05/12 03:52:42;;;;;;;9.25;5.55;;;;;;;14.46;93.73;99836.47;3564255;40;20061;-54
2021/05/12 03:55:10;;;;;;;6.32;5.40;;;;;;;14.30;93.04;99852.88;3564550;40;20407;-55
2021/05/12 03:57:37;;;;;;;10.23;5.25;;;;;;;14.28;94.28;99852.84;3564807;40;20053;-55
2021/05/12 04:00:08;;;;;;;7.82;5.43;;;;;;;14.52;93.18;99863.13;3559888;40;20053;-54
2021/05/12 04:02:35;;;;;;;8.05;5.40;;;;;;;14.43;93.37;99867.41;3562229;40;20054;-58
2021/05/12 04:05:04;;;;;;;9.18;5.82;;;;;;;14.10;94.80;99868.38;3563724;40;20068;-57
2021/05/12 04:07:31;;;;;;;7.82;4.97;;;;;;;14.22;94.53;99873.47;3564146;40;20065;-56
2021/05/12 04:09:58;;;;;;;11.73;4.70;;;;;;;14.33;94.04;99874.31;3563988;40;20065;-52
2021/05/12 04:12:25;;;;;;;7.88;5.75;;;;;;;14.15;95.48;99871.78;3566129;40;20064;-51
2021/05/12 04:14:52;;;;;;;9.98;5.95;;;;;;;14.36;93.72;99865.72;3565093;40;20065;-54
2021/05/12 04:17:19;;;;;;;5.72;4.93;;;;;;;14.52;92.49;99870.84;3565853;40;20133;-54
2021/05/12 04:19:46;;;;;;;6.97;4.68;;;;;;;14.33;93.13;99870.88;3564325;40;20351;-59
2021/05/12 04:22:15;;;;;;;7.45;4.70;;;;;;;14.38;93.33;99874.31;3564929;40;20407;-52
2021/05/12 04:24:42;;;;;;;7.85;4.65;;;;;;;14.45;92.51;99879.41;3564759;40;20053;-56
2021/05/12 04:27:10;;;;;;;7.20;4.72;;;;;;;14.62;92.74;99884.56;3565398;40;20345;-55
2021/05/12 04:29:37;;;;;;;6.55;4.90;;;;;;;14.43;91.91;99893.19;3565286;40;20060;-58
2021/05/12 04:32:05;;;;;;;9.32;4.97;;;;;;;14.47;93.05;99895.75;3565505;40;20049;-57
2021/05/12 04:34:33;;;;;;;7.15;4.93;;;;;;;14.46;92.55;99904.31;3564992;40;20053;-55
2021/05/12 04:37:01;;;;;;;6.75;5.15;;;;;;;14.49;92.72;99917.22;3563206;40;20061;-59
2021/05/12 04:39:28;;;;;;;8.63;5.82;;;;;;;14.17;94.42;99912.09;3565158;40;20490;-51
2021/05/12 04:41:56;;;;;;;11.27;5.05;;;;;;;14.21;95.20;99913.81;3564206;40;20066;-56
2021/05/12 04:44:23;;;;;;;9.63;5.30;;;;;;;14.33;95.23;99912.94;3565653;40;20053;-54
2021/05/12 04:46:50;;;;;;;7.40;5.93;;;;;;;14.26;94.36;99911.25;3565315;40;20073;-54
2021/05/12 04:49:18;;;;;;;8.90;5.30;;;;;;;14.44;94.59;99906.03;3565397;40;20330;-52
2021/05/12 04:51:45;;;;;;;8.73;5.72;;;;;;;14.52;94.27;99916.38;3562349;40;20057;-54
2021/05/12 04:54:12;;;;;;;8.30;5.75;;;;;;;14.75;91.71;99913.72;3566247;40;20065;-55
2021/05/12 04:56:39;;;;;;;8.50;5.72;;;;;;;14.82;93.07;99907.66;3564784;40;20054;-55
2021/05/12 04:59:06;;;;;;;11.05;4.97;;;;;;;14.48;94.12;99907.78;3565064;40;20113;-51
2021/05/12 05:01:34;;;;;;;7.78;5.30;;;;;;;14.76;91.85;99918.00;3564422;40;20091;-57
2021/05/12 05:04:01;;;;;;;7.13;5.18;;;;;;;14.90;89.19;99926.53;3564648;40;20058;-56
2021/05/12 05:06:28;;;;;;;5.95;4.43;;;;;;;14.72;90.18;99934.34;3565442;40;20072;-52
2021/05/12 05:08:55;;;;;;;7.75;5.50;;;;;;;14.54;91.88;99922.38;3565065;40;20056;-54
2021/05/12 05:11:23;;;;;;;9.70;5.72;;;;;;;14.59;91.34;99930.09;3565442;40;20057;-51
2021/05/12 05:13:50;;;;;;;7.25;4.88;;;;;;;14.73;90.61;99936.91;3564957;40;20061;-52
2021/05/12 05:16:17;;;;;;;7.13;5.47;;;;;;;14.68;91.30;99937.78;3564544;40;20097;-55
2021/05/12 05:18:45;;;;;;;8.55;5.30;;;;;;;14.89;89.23;99929.97;3564229;40;20061;-51
2021/05/12 05:21:14;;;;;;;8.18;5.18;;;;;;;14.90;90.43;99944.59;3564368;40;20061;-57
2021/05/12 05:23:41;;;;;;;7.18;5.03;;;;;;;14.76;90.28;99930.88;3563096;40;20088;-52
2021/05/12 05:26:09;;;;;;;6.82;4.60;;;;;;;15.22;88.15;99933.25;3564624;40;20072;-50
2021/05/12 05:28:36;;;;;;;7.00;5.32;;;;;;;15.33;87.78;99930.63;3564934;40;20064;-59
2021/05/12 05:31:03;;;;;;;9.43;5.30;;;;;;;15.26;87.35;99927.22;3565063;40;20321;-54
2021/05/12 05:33:30;;;;;;;9.75;5.00;;;;;;;15.29;86.85;99922.88;3564413;40;20416;-57
2021/05/12 05:35:57;;;;;;;5.82;4.40;;;;;;;15.12;88.28;99921.28;3564597;40;20086;-51
2021/05/12 05:38:24;;;;;;;8.18;4.78;;;;;;;15.49;86.22;99924.50;3563088;40;20054;-52
2021/05/12 05:40:51;;;;;;;5.10;4.25;;;;;;;15.33;86.88;99933.19;3564917;40;20073;-54
2021/05/12 05:43:18;;;;;;;7.20;4.30;;;;;;;15.20;86.93;99946.16;3564336;40;20163;-55
2021/05/12 05:45:45;;;;;;;7.07;4.47;;;;;;;15.59;85.62;99945.94;3561993;40;20069;-52
2021/05/12 05:48:12;;;;;;;8.52;4.75;;;;;;;15.02;86.49;99944.53;3564523;40;20420;-53
2021/05/12 05:50:40;;;;;;;4.90;4.45;;;;;;;14.89;87.33;99947.16;3564381;40;20060;-54
2021/05/12 05:53:07;;;;;;;5.70;4.50;;;;;;;14.95;87.02;99944.56;3565474;40;20129;-51
2021/05/12 05:55:34;;;;;;;5.93;3.63;;;;;;;15.23;86.81;99945.28;3564952;40;20069;-56
2021/05/12 05:58:01;;;;;;;6.65;3.90;;;;;;;15.21;86.74;99947.03;3562764;40;20062;-57
2021/05/12 06:00:28;;;;;;;8.38;4.75;;;;;;;15.49;83.79;99945.16;3564568;40;20058;-52
2021/05/12 06:02:55;;;;;;;7.53;4.70;;;;;;;15.28;85.17;99946.97;3565078;40;20376;-56
2021/05/12 06:05:22;;;;;;;5.38;4.35;;;;;;;15.22;84.68;99954.75;3564884;40;20493;-55
2021/05/12 06:07:49;;;;;;;6.25;4.65;;;;;;;15.41;84.29;99952.06;3564297;40;20046;-57
2021/05/12 06:10:16;;;;;;;7.63;4.75;;;;;;;15.54;84.62;99954.56;3564781;40;20053;-50
2021/05/12 06:12:45;;;;;;;8.02;4.20;;;;;;;15.58;84.63;99952.81;3564051;40;20469;-54
2021/05/12 06:15:19;;;;;;;5.05;4.55;;;;;;;15.53;83.93;99952.84;3563009;40;20041;-54
2021/05/12 06:17:51;;;;;;;7.47;4.35;;;;;;;15.70;83.74;99963.09;3564634;40;20053;-53
2021/05/12 06:20:18;;;;;;;6.72;4.30;;;;;;;15.49;84.42;99958.03;3564870;40;20445;-54
2021/05/12 06:22:45;;;;;;;6.68;5.00;;;;;;;15.58;83.72;99962.28;3564363;40;20057;-52
2021/05/12 06:25:14;;;;;;;5.80;4.97;;;;;;;15.23;85.22;99968.50;3563868;40;20042;-54
2021/05/12 06:27:42;;;;;;;6.97;4.45;;;;;;;15.40;84.23;99971.84;3557460;40;20045;-53
2021/05/12 06:30:10;;;;;;;7.93;4.85;;;;;;;15.20;85.25;99966.78;3564055;40;20133;-53
2021/05/12 06:32:39;;;;;;;6.82;4.55;;;;;;;15.45;85.04;99959.78;3557751;40;20065;-57
2021/05/12 06:35:06;;;;;;;8.35;4.88;;;;;;;15.71;83.35;99967.38;3564428;40;20053;-53
2021/05/12 06:37:33;;;;;;;8.93;5.28;;;;;;;15.75;82.22;99963.91;3563771;40;20052;-50
2021/05/12 06:40:00;;;;;;;5.85;5.13;;;;;;;15.51;83.67;99969.19;3560974;40;20061;-56
2021/05/12 06:42:27;;;;;;;7.85;5.10;;;;;;;15.47;84.17;99970.94;3564709;40;20057;-49
2021/05/12 06:44:54;;;;;;;5.43;4.50;;;;;;;15.71;82.47;99966.50;3564047;40;20059;-51
2021/05/12 06:47:21;;;;;;;6.55;5.25;;;;;;;15.60;82.13;99974.31;3562193;40;20319;-53
2021/05/12 06:49:48;;;;;;;6.63;5.28;;;;;;;15.31;83.34;99971.91;3564284;40;20443;-55
2021/05/12 06:52:15;;;;;;;6.10;5.50;;;;;;;15.90;81.79;99970.69;3564634;40;20060;-51
2021/05/12 06:54:42;;;;;;;6.05;5.43;;;;;;;15.92;82.28;99960.34;3563687;40;20057;-52
2021/05/12 06:57:09;;;;;;;7.28;5.75;;;;;;;15.61;83.04;99967.41;3564420;40;20058;-53
2021/05/12 06:59:36;;;;;;;6.72;5.65;;;;;;;15.89;82.18;99970.69;3563822;40;20069;-51
2021/05/12 07:02:03;;;;;;;9.13;7.15;;;;;;;15.76;81.80;99959.59;3565293;40;20403;-53
2021/05/12 07:04:30;;;;;;;10.50;7.78;;;;;;;15.35;83.87;99971.03;3564132;40;20042;-50
2021/05/12 07:06:57;;;;;;;12.43;7.05;;;;;;;15.66;82.65;99970.84;3565553;40;20124;-50
2021/05/12 07:09:24;;;;;;;7.80;6.22;;;;;;;15.81;82.19;99975.94;3564287;40;20168;-49
2021/05/12 07:11:52;;;;;;;7.00;6.22;;;;;;;15.82;82.21;99976.78;3563528;40;20283;-52
2021/05/12 07:14:20;;;;;;;6.32;5.72;;;;;;;16.07;80.86;99973.13;3563838;40;20060;-52
2021/05/12 07:16:48;;;;;;;6.68;5.07;;;;;;;16.23;79.73;99989.38;3563435;40;20049;-53
2021/05/12 07:19:18;;;;;;;7.40;5.15;;;;;;;16.10;80.07;99992.91;3563938;40;20064;-56
2021/05/12 07:21:48;;;;;;;6.38;5.78;;;;;;;16.06;78.65;99989.50;3563131;40;20058;-54
2021/05/12 07:24:15;;;;;;;6.40;5.28;;;;;;;15.91;79.63;99990.47;3563915;40;20045;-52
2021/05/12 07:26:42;;;;;;;8.48;5.88;;;;;;;15.90;80.06;99990.47;3563985;40;20053;-54
2021/05/12 07:29:09;;;;;;;7.07;5.68;;;;;;;16.15;80.03;99988.56;3563944;40;20056;-53
2021/05/12 07:31:36;;;;;;;7.63;5.55;;;;;;;15.78;80.87;99976.78;3563996;40;20068;-53
2021/05/12 07:34:06;;;;;;;6.90;5.68;;;;;;;16.06;80.69;99981.75;3564665;40;20056;-51
2021/05/12 07:36:34;;;;;;;11.32;6.43;;;;;;;16.13;79.02;99978.25;3563667;40;20073;-56
2021/05/12 07:39:01;;;;;;;7.90;6.47;;;;;;;16.16;79.95;99980.81;3562310;40;20068;-51
2021/05/12 07:41:28;;;;;;;11.98;6.78;;;;;;;16.54;78.15;99977.00;3563832;40;20392;-53
2021/05/12 07:43:56;;;;;;;10.18;7.00;;;;;;;16.68;77.30;99982.03;3563185;40;20058;-55
2021/05/12 07:46:25;;;;;;;8.65;7.00;;;;;;;16.66;77.00;99987.22;3564305;40;20056;-54
2021/05/12 07:48:53;;;;;;;8.23;7.03;;;;;;;16.59;77.15;99987.28;3565553;40;20041;-54
2021/05/12 07:51:21;;;;;;;9.13;6.60;;;;;;;16.91;74.91;99995.59;3565841;40;20092;-50
2021/05/12 07:53:49;;;;;;;7.07;6.28;;;;;;;17.01;74.96;99992.03;3565282;40;20416;-52
2021/05/12 07:56:16;;;;;;;6.80;6.00;;;;;;;17.07;75.64;99995.44;3567784;40;20057;-50
2021/05/12 07:58:44;;;;;;;9.10;5.95;;;;;;;17.01;76.10;99991.19;3565020;40;20079;-57
2021/05/12 08:01:28;;;;;;;9.00;6.82;;;;;;;17.01;75.22;99994.63;3565516;40;20289;-54
2021/05/12 08:03:56;;;;;;;9.25;6.97;;;;;;;16.20;78.31;99986.81;3565575;40;20057;-51
2021/05/12 08:06:23;;;;;;;8.75;6.78;;;;;;;17.00;77.07;99995.47;3565521;40;20056;-56
2021/05/12 08:08:50;;;;;;;9.25;6.78;;;;;;;16.72;76.89;99997.53;3564778;40;20075;-52
2021/05/12 08:11:20;;;;;;;8.60;7.05;;;;;;;16.73;76.21;100001.84;3565542;40;20057;-53
2021/05/12 08:13:49;;;;;;;9.55;6.85;;;;;;;16.83;76.58;100006.91;3564827;40;20049;-57
2021/05/12 08:16:16;;;;;;;8.13;7.25;;;;;;;16.43;79.29;99997.78;3565487;40;20057;-54
2021/05/12 08:18:43;;;;;;;7.32;6.43;;;;;;;16.88;77.15;100000.81;3564824;40;20088;-47
2021/05/12 08:21:11;;;;;;;11.73;7.93;;;;;;;16.35;78.26;99999.56;3564551;40;20045;-56
2021/05/12 08:23:38;;;;;;;10.07;7.93;;;;;;;16.29;78.21;100005.66;3565012;40;20605;-57
2021/05/12 08:26:06;;;;;;;10.45;8.43;;;;;;;16.10;79.41;100009.28;3565773;40;20435;-57
2021/05/12 08:28:33;;;;;;;11.15;7.93;;;;;;;16.00;80.64;100008.50;3565573;40;20053;-51
2021/05/12 08:31:00;;;;;;;11.30;8.13;;;;;;;16.02;80.05;100006.75;3563945;40;20049;-59
2021/05/12 08:33:27;;;;;;;12.27;9.55;;;;;;;16.08;79.46;100005.81;3565559;40;20364;-52
2021/05/12 08:35:54;;;;;;;9.82;8.65;;;;;;;16.10;79.72;100000.66;3565369;40;20053;-55
2021/05/12 08:38:24;;;;;;;10.85;9.27;;;;;;;16.07;79.78;100011.88;3562860;40;20156;-52
2021/05/12 08:40:53;;;;;;;12.70;9.07;;;;;;;16.02;80.53;100005.88;3565157;40;20062;-48
2021/05/12 08:43:21;;;;;;;12.10;9.48;;;;;;;15.87;81.72;100006.00;3565563;40;20446;-57
2021/05/12 08:45:48;;;;;;;14.70;9.55;;;;;;;15.92;80.88;100004.25;3564780;40;20065;-50
2021/05/12 08:48:17;;;;;;;12.77;10.18;;;;;;;15.62;83.10;100015.56;3565841;40;20053;-54
2021/05/12 08:50:45;;;;;;;14.75;10.00;;;;;;;16.28;80.39;100006.53;3565763;40;20079;-49
2021/05/12 08:53:12;;;;;;;17.48;10.52;;;;;;;16.03;79.56;100005.00;3565239;40;20038;-50
2021/05/12 08:55:40;;;;;;;13.18;9.40;;;;;;;16.41;79.84;100012.47;3565039;40;20045;-55
2021/05/12 08:58:07;;;;;;;13.05;10.38;;;;;;;16.44;77.99;100004.66;3565303;40;20053;-57
2021/05/12 09:00:34;;;;;;;14.02;9.88;;;;;;;16.84;77.84;99995.69;3565073;40;20083;-54
2021/05/12 09:03:03;;;;;;;13.38;10.15;;;;;;;16.94;77.52;99997.28;3562151;40;20049;-50
2021/05/12 09:05:31;;;;;;;14.50;11.70;;;;;;;17.02;76.12;99996.34;3555702;40;20041;-54
2021/05/12 09:07:58;;;;;;;14.20;10.65;;;;;;;16.88;75.70;99992.19;3565344;40;20060;-50
2021/05/12 09:10:26;;;;;;;13.95;10.85;;;;;;;16.91;76.89;100000.75;3565719;40;20053;-52
2021/05/12 09:12:59;;;;;;;16.27;11.38;;;;;;;16.75;77.30;99999.22;3562554;40;20060;-51
2021/05/12 09:15:28;;;;;;;15.45;11.55;;;;;;;16.53;77.10;99995.97;3563859;40;20077;-53
2021/05/12 09:18:00;;;;;;;15.60;12.38;;;;;;;16.63;78.11;99991.56;3564780;40;20060;-56
2021/05/12 09:20:30;;;;;;;16.52;12.20;;;;;;;16.84;77.37;99996.53;3563595;40;20778;-53
2021/05/12 09:23:01;;;;;;;20.17;12.00;;;;;;;16.54;78.55;99997.66;3565039;40;20061;-59
2021/05/12 09:25:30;;;;;;;18.13;13.02;;;;;;;16.69;77.75;100001.84;3565610;40;20061;-56
2021/05/12 09:28:13;;;;;;;19.70;14.32;;;;;;;16.19;79.18;99996.28;3565310;40;20049;-51
2021/05/12 09:30:42;;;;;;;16.65;13.65;;;;;;;16.18;79.34;99988.56;3564310;40;20078;-52
2021/05/12 09:33:28;;;;;;;20.27;13.82;;;;;;;16.66;78.71;99984.63;3565021;40;20408;-52
2021/05/12 09:35:55;;;;;;;20.08;13.52;;;;;;;16.71;78.55;99977.69;3564722;40;20121;-51
2021/05/12 09:38:28;;;;;;;20.17;13.43;;;;;;;16.75;77.42;99976.81;3563174;40;20075;-56
2021/05/12 09:41:06;;;;;;;17.75;12.75;;;;;;;16.91;77.38;99969.72;3564935;40;20088;-54
2021/05/12 09:43:35;;;;;;;19.88;13.80;;;;;;;16.34;78.28;99961.69;3564471;40;20366;-52
2021/05/12 09:46:25;;;;;;;19.00;12.52;;;;;;;16.70;78.04;99972.53;3561802;40;20141;-52
2021/05/12 09:48:58;;;;;;;19.65;13.90;;;;;;;16.55;78.90;99963.22;3564960;40;20046;-50
2021/05/12 09:51:36;;;;;;;16.95;13.35;;;;;;;16.75;77.52;99965.63;3563894;40;20080;-53
2021/05/12 09:54:17;;;;;;;18.35;13.82;;;;;;;16.82;77.20;99972.41;3565737;40;20042;-55
2021/05/12 09:56:54;;;;;;;20.85;15.07;;;;;;;16.90;76.40;99973.19;3565301;40;20053;-51
2021/05/12 09:59:24;;;;;;;21.00;13.75;;;;;;;16.69;78.58;99971.69;3566175;40;20057;-53
2021/05/12 10:01:55;;;;;;;18.50;14.25;;;;;;;16.68;77.76;99966.50;3565606;40;20046;-52
2021/05/12 10:04:37;;;;;;;19.52;13.35;;;;;;;16.95;76.59;99962.78;3563282;40;20059;-53
2021/05/12 10:07:23;;;;;;;19.63;13.55;;;;;;;16.80;76.97;99967.28;3563688;40;20042;-57
2021/05/12 10:09:55;;;;;;;18.33;14.02;;;;;;;17.18;77.85;99975.44;3564032;40;20050;-56
2021/05/12 10:12:24;;;;;;;20.48;13.40;;;;;;;17.04;76.80;99978.19;3562714;40;20053;-53
2021/05/12 10:14:55;;;;;;;22.00;12.32;;;;;;;17.16;76.13;99985.81;3564525;40;20093;-52
2021/05/12 10:17:23;;;;;;;18.75;12.48;;;;;;;17.13;76.89;99983.25;3562676;40;20381;-54
2021/05/12 10:19:54;;;;;;;20.42;13.85;;;;;;;16.93;76.27;99985.25;3564229;40;20077;-51
2021/05/12 10:22:22;;;;;;;16.88;11.90;;;;;;;17.42;76.78;99976.84;3560174;40;20064;-53
2021/05/12 10:24:52;;;;;;;17.52;13.13;;;;;;;17.54;75.75;99979.28;3564048;40;20061;-56
2021/05/12 10:27:26;;;;;;;17.80;13.52;;;;;;;17.79;73.40;99988.44;3564504;40;20049;-53
2021/05/12 10:29:58;;;;;;;17.35;13.80;;;;;;;17.11;76.57;99981.59;3564342;40;20067;-53
2021/05/12 10:32:30;;;;;;;18.80;13.13;;;;;;;17.46;74.19;99989.72;3562465;40;20432;-54
2021/05/12 10:35:06;;;;;;;19.15;14.07;;;;;;;17.59;73.45;99985.22;3564280;40;20049;-56
2021/05/12 10:37:37;;;;;;;;;;;;;;;17.64;74.58;99993.78;3565035;40;20104;-55
2021/05/12 10:40:07;;;;;;;21.10;14.27;;;;;;;17.62;73.33;99990.38;3564743;40;19937;-57
2021/05/12 10:42:56;;;;;;;18.40;13.85;;;;;;;17.52;73.19;99999.16;3562819;40;20331;-50
2021/05/12 10:45:39;;;;;;;14.65;12.93;;;;;;;17.89;73.17;99996.91;3562874;40;20631;-55
2021/05/12 10:48:07;;;;;;;16.77;12.48;;;;;;;17.90;72.45;99993.44;3562345;40;20300;-55
2021/05/12 10:50:48;;;;;;;17.73;13.60;;;;;;;17.78;73.20;99988.44;3564651;40;20463;-52
2021/05/12 10:53:18;;;;;;;15.70;12.90;;;;;;;17.46;74.55;99994.03;3562398;40;20080;-57
2021/05/12 10:55:58;;;;;;;18.90;13.57;;;;;;;17.80;73.31;99990.13;3564778;40;20374;-55
2021/05/12 10:58:29;;;;;;;16.17;14.48;;;;;;;17.63;73.83;100001.59;3563344;40;20073;-57
2021/05/12 11:01:02;;;;;;;17.48;12.93;;;;;;;17.59;74.28;100016.31;3564434;40;20056;-52
2021/05/12 11:03:49;;;;;;;15.07;12.02;;;;;;;17.79;73.79;100010.84;3564705;40;20085;-53
2021/05/12 11:06:17;;;;;;;19.13;13.68;;;;;;;17.21;75.66;100009.91;3561740;40;20521;-57
2021/05/12 11:09:06;;;;;;;19.88;14.30;;;;;;;16.95;76.27;100005.03;3564023;40;20412;-54
2021/05/12 11:11:45;;;;;;;18.08;13.77;;;;;;;17.61;74.69;100004.22;3563055;40;20041;-57
2021/05/12 11:14:26;;;;;;;16.05;13.20;;;;;;;17.84;74.51;100001.31;3561772;40;20050;-51
2021/05/12 11:17:02;;;;;;;16.58;13.13;;;;;;;17.90;73.46;100006.38;3563840;40;20053;-51
2021/05/12 11:19:36;;;;;;;;;;;;;;;17.53;73.81;100017.25;3563262;40;20065;-55
2021/05/12 11:22:25;;;;;;;17.55;13.80;;;;;;;17.61;75.04;100017.16;3561913;40;19937;-52
2021/05/12 11:24:59;;;;;;;20.30;13.98;;;;;;;17.47;75.25;100019.03;3564145;40;20082;-50
2021/05/12 11:32:37;;;;;;;22.15;15.50;;;;;;;17.45;74.99;100021.66;3565696;40;20420;-55
2021/05/12 11:35:08;;;;;;;20.42;15.68;;;;;;;17.44;74.03;100024.28;3566241;40;20065;-55
2021/05/12 11:37:39;;;;;;;23.40;15.95;;;;;;;17.18;74.82;100020.28;3562975;40;20087;-57